createdAt,value
2022-12-25T00:02:10.365Z,7.78
2022-12-25T00:05:15.179Z,7.78
2022-12-25T00:08:22.665Z,7.92
2022-12-25T00:11:27.456Z,7.84
2022-12-25T00:14:32.241Z,7.90
2022-12-25T00:17:37.043Z,7.91
2022-12-25T00:20:41.776Z,7.97
2022-12-25T00:23:49.258Z,7.99
2022-12-25T00:26:54.019Z,7.98
2022-12-25T00:29:58.790Z,8.04
2022-12-25T00:33:03.607Z,8.02
2022-12-25T00:36:10.205Z,7.97
2022-12-25T00:39:17.630Z,8.02
2022-12-25T00:42:23.898Z,8.15
2022-12-25T00:45:29.066Z,7.99
2022-12-25T00:48:34.505Z,7.98
2022-12-25T00:51:39.354Z,8.06
2022-12-25T00:54:46.801Z,8.00
2022-12-25T00:57:51.567Z,7.90
2022-12-25T01:00:56.433Z,7.93
2022-12-25T01:04:01.814Z,7.92
2022-12-25T01:07:06.569Z,7.93
2022-12-25T01:10:24.654Z,7.88
2022-12-25T01:13:30.161Z,7.85
2022-12-25T01:16:35.212Z,7.95
2022-12-25T01:19:40.021Z,7.85
2022-12-25T01:22:45.303Z,7.81
2022-12-25T01:25:52.719Z,7.83
2022-12-25T01:28:57.604Z,7.74
2022-12-25T01:32:02.408Z,7.74
2022-12-25T01:35:07.886Z,7.74
2022-12-25T01:38:12.635Z,7.57
2022-12-25T01:41:22.868Z,7.77
2022-12-25T01:44:57.666Z,7.75
2022-12-25T01:48:03.485Z,7.65
2022-12-25T01:51:14.146Z,7.50
2022-12-25T01:54:23.515Z,7.45
2022-12-25T01:57:35.209Z,7.41
2022-12-25T02:00:40.051Z,7.44
2022-12-25T02:03:45.277Z,7.34
2022-12-25T02:06:51.854Z,7.38
2022-12-25T02:09:57.199Z,7.47
2022-12-25T02:13:05.712Z,7.30
2022-12-25T02:16:16.828Z,7.23
2022-12-25T02:19:39.610Z,7.12
2022-12-25T02:23:02.615Z,7.10
2022-12-25T02:26:19.421Z,7.13
2022-12-25T02:29:33.536Z,7.16
2022-12-25T02:32:44.997Z,7.30
2022-12-25T02:35:54.958Z,7.19
2022-12-25T02:39:15.584Z,7.03
2022-12-25T02:42:49.375Z,6.97
2022-12-25T02:46:12.282Z,6.93
2022-12-25T02:49:34.108Z,6.86
2022-12-25T02:52:51.318Z,7.08
2022-12-25T02:56:10.386Z,6.82
2022-12-25T02:59:31.265Z,6.65
2022-12-25T03:02:51.778Z,6.65
2022-12-25T03:06:15.215Z,6.65
2022-12-25T03:09:37.341Z,6.41
2022-12-25T03:12:47.147Z,6.40
2022-12-25T03:16:05.577Z,6.34
2022-12-25T03:19:25.177Z,6.28
2022-12-25T03:22:44.045Z,6.23
2022-12-25T03:26:01.330Z,6.21
2022-12-25T03:29:06.554Z,6.14
2022-12-25T03:32:19.165Z,6.15
2022-12-25T03:35:33.364Z,6.06
2022-12-25T03:39:02.638Z,6.07
2022-12-25T03:42:34.436Z,6.14
2022-12-25T03:45:58.030Z,6.09
2022-12-25T03:49:23.909Z,6.13
2022-12-25T03:52:45.825Z,6.08
2022-12-25T03:56:04.376Z,6.02
2022-12-25T03:59:24.039Z,6.01
2022-12-25T04:02:41.815Z,6.10
2022-12-25T04:05:59.139Z,6.08
2022-12-25T04:09:19.182Z,6.02
2022-12-25T04:12:36.428Z,5.98
2022-12-25T04:15:53.447Z,5.94
2022-12-25T04:19:10.646Z,5.97
2022-12-25T04:22:30.715Z,6.07
2022-12-25T04:25:53.315Z,6.04
2022-12-25T04:29:10.502Z,6.04
2022-12-25T04:32:27.742Z,6.05
2022-12-25T04:35:44.959Z,6.06
2022-12-25T04:38:49.727Z,6.12
2022-12-25T04:41:57.065Z,6.15
2022-12-25T04:45:01.897Z,6.09
2022-12-25T04:48:07.058Z,6.14
2022-12-25T04:51:19.777Z,6.04
2022-12-25T04:54:24.682Z,6.18
2022-12-25T04:57:32.229Z,6.14
2022-12-25T05:00:37.311Z,6.16
2022-12-25T05:03:42.656Z,6.12
2022-12-25T05:06:47.490Z,6.04
2022-12-25T05:09:52.292Z,6.00
2022-12-25T05:12:59.771Z,5.92
2022-12-25T05:16:08.098Z,5.92
2022-12-25T05:19:13.489Z,5.97
2022-12-25T05:22:18.326Z,5.99
2022-12-25T05:25:23.061Z,6.06
2022-12-25T05:28:30.424Z,6.10
2022-12-25T05:31:35.267Z,6.08
2022-12-25T05:34:40.133Z,6.14
2022-12-25T05:37:44.906Z,6.08
2022-12-25T05:40:49.682Z,6.13
2022-12-25T05:43:58.022Z,6.17
2022-12-25T05:47:02.785Z,6.21
2022-12-25T05:50:08.992Z,6.25
2022-12-25T05:53:16.370Z,6.17
2022-12-25T05:56:21.106Z,6.24
2022-12-25T05:59:28.687Z,6.16
2022-12-25T06:02:33.712Z,6.09
2022-12-25T06:05:41.352Z,6.18
2022-12-25T06:08:46.455Z,6.08
2022-12-25T06:11:51.199Z,6.10
2022-12-25T06:14:58.695Z,5.90
2022-12-25T06:18:03.575Z,5.98
2022-12-25T06:21:10.998Z,6.01
2022-12-25T06:24:21.061Z,6.10
2022-12-25T06:27:26.476Z,6.19
2022-12-25T06:30:33.895Z,6.24
2022-12-25T06:33:39.253Z,6.16
2022-12-25T06:36:44.545Z,6.07
2022-12-25T06:39:49.969Z,6.12
2022-12-25T06:42:55.655Z,6.13
2022-12-25T06:46:05.573Z,6.15
2022-12-25T06:49:10.582Z,6.20
2022-12-25T06:52:15.418Z,6.20
2022-12-25T06:55:20.289Z,6.21
2022-12-25T06:58:25.026Z,6.18
2022-12-25T07:01:35.467Z,6.17
2022-12-25T07:04:43.707Z,6.13
2022-12-25T07:07:48.572Z,6.08
2022-12-25T07:10:53.364Z,6.07
2022-12-25T07:13:58.434Z,6.04
2022-12-25T07:17:05.834Z,6.05
2022-12-25T07:20:12.114Z,6.09
2022-12-25T07:23:16.882Z,6.15
2022-12-25T07:26:22.233Z,6.09
2022-12-25T07:29:27.035Z,6.02
2022-12-25T07:32:36.096Z,6.02
2022-12-25T07:35:40.946Z,6.09
2022-12-25T07:38:46.027Z,6.16
2022-12-25T07:41:51.178Z,6.21
2022-12-25T07:44:56.040Z,6.27
2022-12-25T07:48:06.226Z,6.28
2022-12-25T07:51:16.281Z,6.38
2022-12-25T07:54:21.352Z,6.40
2022-12-25T07:57:26.458Z,6.46
2022-12-25T08:00:32.919Z,6.51
2022-12-25T08:03:40.626Z,6.62
2022-12-25T08:06:45.633Z,6.66
2022-12-25T08:09:50.471Z,6.79
2022-12-25T08:13:01.446Z,6.79
2022-12-25T08:16:08.803Z,6.80
2022-12-25T08:19:16.413Z,6.86
2022-12-25T08:22:21.192Z,6.84
2022-12-25T08:25:26.123Z,6.97
2022-12-25T08:28:32.508Z,6.96
2022-12-25T08:31:42.444Z,6.99
2022-12-25T08:34:53.538Z,7.05
2022-12-25T08:37:58.369Z,7.31
2022-12-25T08:41:06.386Z,7.31
2022-12-25T08:44:11.153Z,7.37
2022-12-25T08:47:15.930Z,7.60
2022-12-25T08:50:23.419Z,7.41
2022-12-25T08:53:28.701Z,7.51
2022-12-25T08:56:33.579Z,7.50
2022-12-25T08:59:40.825Z,7.64
2022-12-25T09:02:45.835Z,7.60
2022-12-25T09:05:53.625Z,7.41
2022-12-25T09:08:58.549Z,7.53
2022-12-25T09:12:03.372Z,7.52
2022-12-25T09:15:10.267Z,7.78
2022-12-25T09:18:15.290Z,7.78
2022-12-25T09:21:23.509Z,7.88
2022-12-25T09:24:28.443Z,7.88
2022-12-25T09:27:33.324Z,7.87
2022-12-25T09:30:38.368Z,7.85
2022-12-25T09:33:43.385Z,8.04
2022-12-25T09:36:50.780Z,8.10
2022-12-25T09:39:55.521Z,8.26
2022-12-25T09:43:01.735Z,8.42
2022-12-25T09:46:10.407Z,8.46
2022-12-25T09:49:21.677Z,8.52
2022-12-25T09:52:37.716Z,8.82
2022-12-25T09:55:49.142Z,8.72
2022-12-25T09:58:53.919Z,8.68
2022-12-25T10:02:18.973Z,8.31
2022-12-25T10:05:50.753Z,8.51
2022-12-25T10:09:23.846Z,8.53
2022-12-25T10:12:51.099Z,8.35
2022-12-25T10:16:07.215Z,8.75
2022-12-25T10:19:27.106Z,8.46
2022-12-25T10:22:37.479Z,8.63
2022-12-25T10:25:46.438Z,8.58
2022-12-25T10:29:01.032Z,8.65
2022-12-25T10:32:05.943Z,8.74
2022-12-25T10:35:15.059Z,8.76
2022-12-25T10:38:21.713Z,8.95
2022-12-25T10:41:40.809Z,9.14
2022-12-25T10:44:57.724Z,9.54
2022-12-25T10:48:08.314Z,9.61
2022-12-25T10:51:13.699Z,9.71
2022-12-25T10:54:24.989Z,9.87
2022-12-25T10:57:32.464Z,9.84
2022-12-25T11:00:37.320Z,9.67
2022-12-25T11:03:43.951Z,9.65
2022-12-25T11:06:59.734Z,9.42
2022-12-25T11:10:08.098Z,10.03
2022-12-25T11:13:25.139Z,9.95
2022-12-25T11:16:33.239Z,9.59
2022-12-25T11:19:38.367Z,9.84
2022-12-25T11:22:48.069Z,10.19
2022-12-25T11:26:00.943Z,10.17
2022-12-25T11:29:28.178Z,10.19
2022-12-25T11:32:39.986Z,10.30
2022-12-25T11:35:50.665Z,10.16
2022-12-25T11:38:55.556Z,10.30
2022-12-25T11:42:05.627Z,10.42
2022-12-25T11:45:18.613Z,10.38
2022-12-25T11:48:30.404Z,10.43
2022-12-25T11:51:38.465Z,10.61
2022-12-25T11:54:53.146Z,10.35
2022-12-25T11:58:01.419Z,10.41
2022-12-25T12:01:18.480Z,10.49
2022-12-25T12:04:31.050Z,10.66
2022-12-25T12:07:39.269Z,10.76
2022-12-25T12:10:59.352Z,10.64
2022-12-25T12:14:19.671Z,11.01
2022-12-25T12:17:27.118Z,11.02
2022-12-25T12:20:34.140Z,10.89
2022-12-25T12:23:50.843Z,10.82
2022-12-25T12:27:07.513Z,11.12
2022-12-25T12:30:26.921Z,11.46
2022-12-25T12:33:39.374Z,12.15
2022-12-25T12:36:44.395Z,11.74
2022-12-25T12:39:56.221Z,11.37
2022-12-25T12:43:01.089Z,10.99
2022-12-25T12:46:11.343Z,11.18
2022-12-25T12:49:25.332Z,11.46
2022-12-25T12:52:35.251Z,11.85
2022-12-25T12:55:40.228Z,12.83
2022-12-25T12:58:51.301Z,12.34
2022-12-25T13:02:13.674Z,12.20
2022-12-25T13:05:32.332Z,12.33
2022-12-25T13:08:56.437Z,12.01
2022-12-25T13:12:01.472Z,11.69
2022-12-25T13:15:07.228Z,11.42
2022-12-25T13:18:15.483Z,11.78
2022-12-25T13:21:26.065Z,13.35
2022-12-25T13:24:32.476Z,14.43
2022-12-25T13:27:37.421Z,13.34
2022-12-25T13:30:42.386Z,14.20
2022-12-25T13:33:49.791Z,15.55
2022-12-25T13:36:57.636Z,17.53
2022-12-25T13:40:04.830Z,17.46
2022-12-25T13:43:13.418Z,16.47
2022-12-25T13:46:18.983Z,16.64
2022-12-25T13:49:25.930Z,15.32
2022-12-25T13:52:37.078Z,14.17
2022-12-25T13:55:42.406Z,12.59
2022-12-25T13:58:50.368Z,11.98
2022-12-25T14:01:57.908Z,11.70
2022-12-25T14:05:02.825Z,12.02
2022-12-25T14:08:17.447Z,11.55
2022-12-25T14:11:24.899Z,11.74
2022-12-25T14:14:29.754Z,11.27
2022-12-25T14:17:36.310Z,11.26
2022-12-25T14:20:44.867Z,11.31
2022-12-25T14:23:53.524Z,11.24
2022-12-25T14:27:03.395Z,11.07
2022-12-25T14:30:16.089Z,10.93
2022-12-25T14:33:23.903Z,11.01
2022-12-25T14:36:29.652Z,10.80
2022-12-25T14:39:39.169Z,10.69
2022-12-25T14:42:43.983Z,10.70
2022-12-25T14:45:57.754Z,10.93
2022-12-25T14:49:04.271Z,10.70
2022-12-25T14:52:17.892Z,10.62
2022-12-25T14:55:28.015Z,10.56
2022-12-25T14:58:35.357Z,10.50
2022-12-25T15:01:44.769Z,10.37
2022-12-25T15:04:49.702Z,10.36
2022-12-25T15:08:06.552Z,10.25
2022-12-25T15:11:14.362Z,10.12
2022-12-25T15:14:19.096Z,9.95
2022-12-25T15:17:29.419Z,9.92
2022-12-25T15:20:37.235Z,9.91
2022-12-25T15:23:41.974Z,9.84
2022-12-25T15:26:49.403Z,9.77
2022-12-25T15:30:10.766Z,9.85
2022-12-25T15:33:20.271Z,9.80
2022-12-25T15:36:25.782Z,9.74
2022-12-25T15:39:31.095Z,9.68
2022-12-25T15:42:38.508Z,9.69
2022-12-25T15:45:45.094Z,9.55
2022-12-25T15:48:49.826Z,9.48
2022-12-25T15:51:54.633Z,9.41
2022-12-25T15:54:59.366Z,9.45
2022-12-25T15:58:06.841Z,9.33
2022-12-25T16:01:16.493Z,9.23
2022-12-25T16:04:21.668Z,9.07
2022-12-25T16:07:29.089Z,9.07
2022-12-25T16:10:38.628Z,8.94
2022-12-25T16:13:46.444Z,9.06
2022-12-25T16:16:51.689Z,8.94
2022-12-25T16:19:56.762Z,8.94
2022-12-25T16:23:01.556Z,8.87
2022-12-25T16:26:06.680Z,8.77
2022-12-25T16:29:17.623Z,8.82
2022-12-25T16:32:22.868Z,8.72
2022-12-25T16:35:27.966Z,8.76
2022-12-25T16:38:35.703Z,8.81
2022-12-25T16:41:40.835Z,8.88
2022-12-25T16:44:48.530Z,8.80
2022-12-25T16:47:53.582Z,8.93
2022-12-25T16:50:58.606Z,8.86
2022-12-25T16:54:03.950Z,8.96
2022-12-25T16:57:08.957Z,8.90
2022-12-25T17:00:18.321Z,8.79
2022-12-25T17:03:25.297Z,8.61
2022-12-25T17:06:31.105Z,8.42
2022-12-25T17:09:42.100Z,8.35
2022-12-25T17:12:48.990Z,8.32
2022-12-25T17:15:56.612Z,8.52
2022-12-25T17:19:04.381Z,8.43
2022-12-25T17:22:09.245Z,8.38
2022-12-25T17:25:14.119Z,8.27
2022-12-25T17:28:19.069Z,8.19
2022-12-25T17:31:26.703Z,8.13
2022-12-25T17:34:31.475Z,8.15
2022-12-25T17:37:36.738Z,8.17
2022-12-25T17:40:41.888Z,8.31
2022-12-25T17:43:47.091Z,8.20
2022-12-25T17:46:54.572Z,8.17
2022-12-25T17:49:59.425Z,8.12
2022-12-25T17:53:05.401Z,7.96
2022-12-25T17:56:11.492Z,7.91
2022-12-25T17:59:18.801Z,7.82
2022-12-25T18:02:26.872Z,7.67
2022-12-25T18:05:31.745Z,7.55
2022-12-25T18:08:39.622Z,7.51
2022-12-25T18:11:46.214Z,7.56
2022-12-25T18:14:51.154Z,7.55
2022-12-25T18:17:58.582Z,7.47
2022-12-25T18:21:03.875Z,7.45
2022-12-25T18:24:10.620Z,7.41
2022-12-25T18:27:15.501Z,7.49
2022-12-25T18:30:20.495Z,7.50
2022-12-25T18:33:28.840Z,7.47
2022-12-25T18:36:33.731Z,7.36
2022-12-25T18:39:38.610Z,7.41
2022-12-25T18:42:46.321Z,7.48
2022-12-25T18:45:59.280Z,7.40
2022-12-25T18:49:08.791Z,7.18
2022-12-25T18:52:48.124Z,7.18
2022-12-25T18:55:43.643Z,7.13
2022-12-25T18:58:51.587Z,7.01
2022-12-25T19:01:57.782Z,7.00
2022-12-25T19:05:09.265Z,7.05
2022-12-25T19:08:14.419Z,7.41
2022-12-25T19:11:20.116Z,7.09
2022-12-25T19:14:26.083Z,7.13
2022-12-25T19:17:32.103Z,7.10
2022-12-25T19:20:41.562Z,7.19
2022-12-25T19:23:46.675Z,6.96
2022-12-25T19:26:51.636Z,6.88
2022-12-25T19:29:56.637Z,6.81
2022-12-25T19:33:01.602Z,7.01
2022-12-25T19:36:11.643Z,6.94
2022-12-25T19:39:16.775Z,6.92
2022-12-25T19:42:22.145Z,7.00
2022-12-25T19:45:27.223Z,6.86
2022-12-25T19:48:33.106Z,6.78
2022-12-25T19:51:43.570Z,6.91
2022-12-25T19:54:48.387Z,6.75
2022-12-25T19:57:55.412Z,6.76
2022-12-25T20:01:01.891Z,6.83
2022-12-25T20:04:08.120Z,6.70
2022-12-25T20:07:15.485Z,6.69
2022-12-25T20:10:20.367Z,6.55
2022-12-25T20:13:25.780Z,6.72
2022-12-25T20:16:31.010Z,6.66
2022-12-25T20:19:35.961Z,6.71
2022-12-25T20:22:43.505Z,6.66
2022-12-25T20:25:48.274Z,6.61
2022-12-25T20:28:53.716Z,6.54
2022-12-25T20:31:58.502Z,6.56
2022-12-25T20:35:03.366Z,6.49
2022-12-25T20:38:10.909Z,6.53
2022-12-25T20:41:27.249Z,6.43
2022-12-25T20:44:33.108Z,6.42
2022-12-25T20:47:38.319Z,6.51
2022-12-25T20:50:43.088Z,6.47
2022-12-25T20:53:50.883Z,6.56
2022-12-25T20:56:55.852Z,6.59
2022-12-25T21:00:00.668Z,6.57
2022-12-25T21:03:05.511Z,6.69
2022-12-25T21:06:12.200Z,6.81
2022-12-25T21:09:19.587Z,6.78
2022-12-25T21:12:24.494Z,6.85
2022-12-25T21:15:29.530Z,6.89
2022-12-25T21:18:35.722Z,6.97
2022-12-25T21:21:43.208Z,7.08
2022-12-25T21:24:52.134Z,7.09
2022-12-25T21:27:56.948Z,7.12
2022-12-25T21:31:04.748Z,7.09
2022-12-25T21:34:07.073Z,7.14
2022-12-25T21:37:11.997Z,7.25
2022-12-25T21:40:19.584Z,7.63
2022-12-25T21:43:24.469Z,8.32
2022-12-25T21:46:30.635Z,7.94
2022-12-25T21:49:47.911Z,7.96
2022-12-25T21:52:52.792Z,8.38
2022-12-25T21:56:06.050Z,9.15
2022-12-25T21:59:12.325Z,9.10
2022-12-25T22:02:17.250Z,9.08
2022-12-25T22:05:34.360Z,9.16
2022-12-25T22:08:39.075Z,9.24
2022-12-25T22:11:59.291Z,9.58
2022-12-25T22:15:07.311Z,9.74
2022-12-25T22:18:24.813Z,9.79
2022-12-25T22:21:29.675Z,10.11
2022-12-25T22:24:34.472Z,10.33
2022-12-25T22:27:43.822Z,10.45
2022-12-25T22:30:48.755Z,10.43
2022-12-25T22:33:53.525Z,10.59
2022-12-25T22:36:58.963Z,10.46
2022-12-25T22:40:04.193Z,10.58
2022-12-25T22:43:11.724Z,10.68
2022-12-25T22:46:16.542Z,10.69
2022-12-25T22:49:22.007Z,10.71
2022-12-25T22:52:26.972Z,10.76
2022-12-25T22:55:31.949Z,10.77
2022-12-25T22:58:39.462Z,10.80
2022-12-25T23:01:44.847Z,10.82
2022-12-25T23:04:49.723Z,10.88
2022-12-25T23:07:54.689Z,10.81
2022-12-25T23:11:04.863Z,10.78
2022-12-25T23:14:25.594Z,10.77
2022-12-25T23:17:42.982Z,10.61
2022-12-25T23:21:00.227Z,10.98
2022-12-25T23:24:17.431Z,11.02
2022-12-25T23:27:23.019Z,11.00
2022-12-25T23:30:27.821Z,11.00
2022-12-25T23:33:32.705Z,11.12
2022-12-25T23:36:37.660Z,11.26
2022-12-25T23:39:42.566Z,11.31
2022-12-25T23:42:47.361Z,11.24
2022-12-25T23:45:54.753Z,11.15
2022-12-25T23:48:59.931Z,11.26
2022-12-25T23:52:04.841Z,11.38
2022-12-25T23:55:11.646Z,11.35
2022-12-25T23:58:16.465Z,11.34
